Aeroporto :
LOGIN :

Iscrizione | Disclaimer

   EN    FR    IT 

 










Sommario :    VFR   VFR Marginale   IFR   IFR Intensivo   IFR Molto Intensivo
Visibilità : 
Base nubi : 
>= 8 km
>= 3000ft
5 / 8 km
1000 / 3000 ft
1500m / 5 km
500 / 1000 ft
800 / 1500m
200 / 500 ft
< 800m
< 200 ft
Simboli :   Temporali  Nebbia  Neve Forte  Precipitazioni Forti  Vento > 20 kt
SIGMETs :   Varie  Temporali  Ghiacco  Turbolenza  Onda orograficha  Ceneri Vulcaniche







- Altitudine del aeroporto : 1302 ft
- Codice IATA : GNB
- Carte del aeroporto


LFLS - Grenoble / St. Geoirs

ULTIMO METAR :
  • 230630Z AUTO VRB02KT 2400 BR FEW005 M01/M01 Q1029 TEMPO 0400 FZFG VV///

METARs OBSOLETI :
  • 230600Z AUTO VRB03KT 0900 R09/1200U R27/1300U FZFG VV/// M00/M01 Q1029 TEMPO 0400 FZFG
  • 230530Z AUTO 10004KT 0400 0350 R09/0500N R27/0400D FZFG VV/// M01/M02 Q1029 NOSIG
  • 230500Z AUTO 06004KT 040V100 0450 0250 R09/0650U R27/0300N FG VV/// 00/M00 Q1029 TEMPO 0400 FZFG
  • 230430Z AUTO 12005KT 1600 0400 R09/1900U R27/0450D BCFG VV/// M00/M01 Q1029 TEMPO 0400 FZFG
  • 230400Z AUTO 10003KT 0750 0400 R09/0500D R27/0800N FZFG FEW005 M01/M02 Q1029 TEMPO 0500 FG VV///
  • 230330Z AUTO VRB03KT 3300 1200 R09/1400D R27/1600U BR VV/// M00/M01 Q1029 TEMPO 0500 FG

TAF AMD TAF LFLS
Valido dal 23 a 04 ore il 24 a 03 ore UTC


230414Z 2304/2403 VRB03KT 3000 BR NSC
TEMPO 2304/2309 0400 FZFG VV///
BECMG 2309/2311 CAVOK
PROB30
TEMPO 2322/2403 3000 BR
ATIS : +33 4 76 65 55 89
Nessun NOTAM noto per questo aeroporto.



MetMap, La meteo Aeronautica in un colpo d'occhio ! - Copyright ORBIFLY Dicembre 2007 - Disclaimer

ORBIFLY MET'MAP TEAM :

Programmazione e sviluppo : Alexandra Zaïnal
Concezione e sviluppo : Baudouin d'Aumeries
Co-Programmazione e sviluppo : Marc-Olivier Méhu
Supporto tecnico e logistico : Manuel Goepfert
Aiuto per la traduzione : Arnaldo La Scala

Contatto : metmap@orbifly.com




FONTI E CREDITI :

   NOAA